sensor_id;sensor_type;location;lat;lon;timestamp;P1;durP1;ratioP1;P2;durP2;ratioP2
76094;SDS011;64821;13.710;100.604;2023-06-22T00:00:25;15.03;;;7.70;;
76094;SDS011;64821;13.710;100.604;2023-06-22T00:01:30;14.55;;;7.72;;
76094;SDS011;64821;13.710;100.604;2023-06-22T00:02:34;15.68;;;7.45;;
76094;SDS011;64821;13.710;100.604;2023-06-22T00:03:37;13.15;;;7.18;;
76094;SDS011;64821;13.710;100.604;2023-06-22T00:04:41;13.63;;;6.90;;
76094;SDS011;64821;13.710;100.604;2023-06-22T00:05:45;13.13;;;6.87;;
76094;SDS011;64821;13.710;100.604;2023-06-22T00:06:49;13.63;;;7.13;;
76094;SDS011;64821;13.710;100.604;2023-06-22T00:07:53;13.75;;;6.63;;
76094;SDS011;64821;13.710;100.604;2023-06-22T00:08:58;13.25;;;6.80;;
76094;SDS011;64821;13.710;100.604;2023-06-22T00:10:02;14.23;;;6.90;;
76094;SDS011;64821;13.710;100.604;2023-06-22T00:11:06;11.53;;;5.73;;
76094;SDS011;64821;13.710;100.604;2023-06-22T00:12:10;12.38;;;5.95;;
76094;SDS011;64821;13.710;100.604;2023-06-22T00:13:14;14.05;;;6.20;;
76094;SDS011;64821;13.710;100.604;2023-06-22T00:14:17;13.68;;;6.53;;
76094;SDS011;64821;13.710;100.604;2023-06-22T00:15:21;12.80;;;6.40;;
76094;SDS011;64821;13.710;100.604;2023-06-22T00:16:25;14.43;;;7.00;;
76094;SDS011;64821;13.710;100.604;2023-06-22T00:17:29;16.27;;;8.65;;
76094;SDS011;64821;13.710;100.604;2023-06-22T00:18:33;17.60;;;8.80;;
76094;SDS011;64821;13.710;100.604;2023-06-22T00:19:36;15.73;;;7.75;;
76094;SDS011;64821;13.710;100.604;2023-06-22T00:20:41;20.40;;;10.18;;
76094;SDS011;64821;13.710;100.604;2023-06-22T00:21:44;18.70;;;10.70;;
76094;SDS011;64821;13.710;100.604;2023-06-22T00:22:48;20.38;;;11.95;;
76094;SDS011;64821;13.710;100.604;2023-06-22T00:23:52;21.70;;;12.13;;
76094;SDS011;64821;13.710;100.604;2023-06-22T00:24:57;20.27;;;11.73;;
76094;SDS011;64821;13.710;100.604;2023-06-22T00:26:01;19.10;;;10.75;;
76094;SDS011;64821;13.710;100.604;2023-06-22T00:27:05;18.23;;;10.07;;
76094;SDS011;64821;13.710;100.604;2023-06-22T00:28:09;20.55;;;10.35;;
76094;SDS011;64821;13.710;100.604;2023-06-22T00:29:13;19.92;;;10.63;;
76094;SDS011;64821;13.710;100.604;2023-06-22T00:30:17;18.38;;;10.52;;
76094;SDS011;64821;13.710;100.604;2023-06-22T00:31:21;18.73;;;10.57;;
76094;SDS011;64821;13.710;100.604;2023-06-22T00:32:25;17.80;;;9.83;;
76094;SDS011;64821;13.710;100.604;2023-06-22T00:33:29;17.50;;;9.88;;
76094;SDS011;64821;13.710;100.604;2023-06-22T00:34:33;23.35;;;10.85;;
76094;SDS011;64821;13.710;100.604;2023-06-22T00:35:36;17.50;;;10.23;;
76094;SDS011;64821;13.710;100.604;2023-06-22T00:36:40;18.27;;;9.88;;
76094;SDS011;64821;13.710;100.604;2023-06-22T00:37:44;19.43;;;10.53;;
76094;SDS011;64821;13.710;100.604;2023-06-22T00:38:48;18.38;;;9.55;;
76094;SDS011;64821;13.710;100.604;2023-06-22T00:39:52;17.20;;;9.50;;
76094;SDS011;64821;13.710;100.604;2023-06-22T00:40:57;15.30;;;8.75;;
76094;SDS011;64821;13.710;100.604;2023-06-22T00:42:01;18.02;;;8.35;;
76094;SDS011;64821;13.710;100.604;2023-06-22T00:43:05;15.83;;;9.37;;
76094;SDS011;64821;13.710;100.604;2023-06-22T00:44:09;16.38;;;8.48;;
76094;SDS011;64821;13.710;100.604;2023-06-22T00:45:13;15.07;;;8.80;;
76094;SDS011;64821;13.710;100.604;2023-06-22T00:46:16;14.95;;;8.63;;
76094;SDS011;64821;13.710;100.604;2023-06-22T00:47:20;15.15;;;7.53;;
76094;SDS011;64821;13.710;100.604;2023-06-22T00:48:25;16.70;;;8.30;;
76094;SDS011;64821;13.710;100.604;2023-06-22T00:49:29;15.43;;;8.38;;
76094;SDS011;64821;13.710;100.604;2023-06-22T00:50:33;16.83;;;7.88;;
76094;SDS011;64821;13.710;100.604;2023-06-22T00:51:38;14.43;;;7.15;;
76094;SDS011;64821;13.710;100.604;2023-06-22T00:52:42;15.02;;;7.55;;
76094;SDS011;64821;13.710;100.604;2023-06-22T00:53:45;15.53;;;7.10;;
76094;SDS011;64821;13.710;100.604;2023-06-22T00:54:49;16.67;;;8.05;;
76094;SDS011;64821;13.710;100.604;2023-06-22T00:55:54;14.13;;;7.32;;
76094;SDS011;64821;13.710;100.604;2023-06-22T00:57:00;16.63;;;7.47;;
76094;SDS011;64821;13.710;100.604;2023-06-22T00:58:04;18.02;;;8.00;;
76094;SDS011;64821;13.710;100.604;2023-06-22T00:59:08;15.23;;;7.50;;
76094;SDS011;64821;13.710;100.604;2023-06-22T01:00:13;14.15;;;7.53;;
76094;SDS011;64821;13.710;100.604;2023-06-22T01:01:18;14.13;;;7.25;;
76094;SDS011;64821;13.710;100.604;2023-06-22T01:02:22;13.85;;;7.68;;
76094;SDS011;64821;13.710;100.604;2023-06-22T01:03:25;14.25;;;7.78;;
76094;SDS011;64821;13.710;100.604;2023-06-22T01:04:33;17.77;;;8.00;;
76094;SDS011;64821;13.710;100.604;2023-06-22T01:05:38;16.13;;;7.88;;
76094;SDS011;64821;13.710;100.604;2023-06-22T01:06:44;15.68;;;8.25;;
76094;SDS011;64821;13.710;100.604;2023-06-22T01:08:00;16.88;;;8.07;;
76094;SDS011;64821;13.710;100.604;2023-06-22T01:09:22;22.30;;;10.25;;
76094;SDS011;64821;13.710;100.604;2023-06-22T01:10:36;19.73;;;10.80;;
76094;SDS011;64821;13.710;100.604;2023-06-22T01:11:48;18.88;;;10.70;;
76094;SDS011;64821;13.710;100.604;2023-06-22T01:12:57;21.02;;;11.10;;
76094;SDS011;64821;13.710;100.604;2023-06-22T01:14:06;20.05;;;11.63;;
76094;SDS011;64821;13.710;100.604;2023-06-22T01:15:16;23.08;;;12.32;;
76094;SDS011;64821;13.710;100.604;2023-06-22T01:16:25;24.70;;;12.47;;
76094;SDS011;64821;13.710;100.604;2023-06-22T01:17:32;21.80;;;12.48;;
76094;SDS011;64821;13.710;100.604;2023-06-22T01:18:37;22.88;;;12.60;;
76094;SDS011;64821;13.710;100.604;2023-06-22T01:19:46;25.58;;;13.20;;
76094;SDS011;64821;13.710;100.604;2023-06-22T01:20:52;24.85;;;14.07;;
76094;SDS011;64821;13.710;100.604;2023-06-22T01:21:58;26.83;;;13.70;;
76094;SDS011;64821;13.710;100.604;2023-06-22T01:23:07;25.27;;;15.35;;
76094;SDS011;64821;13.710;100.604;2023-06-22T01:24:24;24.27;;;13.70;;
76094;SDS011;64821;13.710;100.604;2023-06-22T01:25:36;24.52;;;12.35;;
76094;SDS011;64821;13.710;100.604;2023-06-22T01:26:52;21.00;;;13.13;;
76094;SDS011;64821;13.710;100.604;2023-06-22T01:28:05;23.67;;;13.03;;
76094;SDS011;64821;13.710;100.604;2023-06-22T01:29:21;24.02;;;12.05;;
76094;SDS011;64821;13.710;100.604;2023-06-22T01:30:27;22.92;;;11.48;;
76094;SDS011;64821;13.710;100.604;2023-06-22T01:31:32;19.75;;;10.63;;
76094;SDS011;64821;13.710;100.604;2023-06-22T01:32:38;22.00;;;11.30;;
76094;SDS011;64821;13.710;100.604;2023-06-22T01:33:43;20.50;;;11.17;;
76094;SDS011;64821;13.710;100.604;2023-06-22T01:34:49;16.52;;;9.95;;
76094;SDS011;64821;13.710;100.604;2023-06-22T01:35:54;16.80;;;9.77;;
76094;SDS011;64821;13.710;100.604;2023-06-22T01:36:58;19.63;;;9.75;;
76094;SDS011;64821;13.710;100.604;2023-06-22T01:38:04;19.35;;;9.73;;
76094;SDS011;64821;13.710;100.604;2023-06-22T01:39:09;18.53;;;9.60;;
76094;SDS011;64821;13.710;100.604;2023-06-22T01:40:15;15.77;;;9.10;;
76094;SDS011;64821;13.710;100.604;2023-06-22T01:41:23;18.38;;;9.77;;
76094;SDS011;64821;13.710;100.604;2023-06-22T01:42:29;19.77;;;10.02;;
76094;SDS011;64821;13.710;100.604;2023-06-22T01:43:34;17.30;;;9.15;;
76094;SDS011;64821;13.710;100.604;2023-06-22T01:44:40;17.17;;;9.30;;
76094;SDS011;64821;13.710;100.604;2023-06-22T01:45:45;16.30;;;8.50;;
76094;SDS011;64821;13.710;100.604;2023-06-22T01:46:49;16.25;;;8.48;;
76094;SDS011;64821;13.710;100.604;2023-06-22T01:47:55;14.73;;;8.38;;
76094;SDS011;64821;13.710;100.604;2023-06-22T01:49:00;17.15;;;9.00;;
76094;SDS011;64821;13.710;100.604;2023-06-22T01:50:05;18.60;;;10.40;;
76094;SDS011;64821;13.710;100.604;2023-06-22T01:51:10;17.05;;;9.68;;
76094;SDS011;64821;13.710;100.604;2023-06-22T01:52:14;18.05;;;10.02;;
76094;SDS011;64821;13.710;100.604;2023-06-22T01:53:17;16.23;;;9.50;;
76094;SDS011;64821;13.710;100.604;2023-06-22T01:54:22;18.98;;;9.20;;
76094;SDS011;64821;13.710;100.604;2023-06-22T01:55:26;19.93;;;9.90;;
76094;SDS011;64821;13.710;100.604;2023-06-22T01:56:30;18.27;;;10.38;;
76094;SDS011;64821;13.710;100.604;2023-06-22T01:57:34;17.27;;;9.55;;
76094;SDS011;64821;13.710;100.604;2023-06-22T01:58:40;20.27;;;11.43;;
76094;SDS011;64821;13.710;100.604;2023-06-22T01:59:56;21.65;;;10.38;;
76094;SDS011;64821;13.710;100.604;2023-06-22T02:01:04;15.50;;;9.83;;
76094;SDS011;64821;13.710;100.604;2023-06-22T02:02:13;16.38;;;9.43;;
76094;SDS011;64821;13.710;100.604;2023-06-22T02:03:22;16.70;;;9.98;;
76094;SDS011;64821;13.710;100.604;2023-06-22T02:04:31;16.40;;;10.13;;
76094;SDS011;64821;13.710;100.604;2023-06-22T02:05:39;17.92;;;9.20;;
76094;SDS011;64821;13.710;100.604;2023-06-22T02:06:49;17.60;;;9.90;;
76094;SDS011;64821;13.710;100.604;2023-06-22T02:08:06;17.08;;;10.00;;
76094;SDS011;64821;13.710;100.604;2023-06-22T02:09:12;17.15;;;9.60;;
76094;SDS011;64821;13.710;100.604;2023-06-22T02:10:19;16.90;;;10.25;;
76094;SDS011;64821;13.710;100.604;2023-06-22T02:11:25;17.23;;;9.02;;
76094;SDS011;64821;13.710;100.604;2023-06-22T02:12:31;19.13;;;8.80;;
76094;SDS011;64821;13.710;100.604;2023-06-22T02:13:36;18.23;;;8.38;;
76094;SDS011;64821;13.710;100.604;2023-06-22T02:14:40;18.45;;;8.45;;
76094;SDS011;64821;13.710;100.604;2023-06-22T02:15:47;17.00;;;8.48;;
76094;SDS011;64821;13.710;100.604;2023-06-22T02:16:55;19.90;;;9.70;;
76094;SDS011;64821;13.710;100.604;2023-06-22T02:17:59;21.10;;;7.90;;
76094;SDS011;64821;13.710;100.604;2023-06-22T02:19:04;15.93;;;7.90;;
76094;SDS011;64821;13.710;100.604;2023-06-22T02:20:11;16.25;;;8.38;;
76094;SDS011;64821;13.710;100.604;2023-06-22T02:21:15;17.80;;;8.80;;
76094;SDS011;64821;13.710;100.604;2023-06-22T02:22:19;14.63;;;7.97;;
76094;SDS011;64821;13.710;100.604;2023-06-22T02:23:23;15.80;;;8.30;;
76094;SDS011;64821;13.710;100.604;2023-06-22T02:24:27;12.50;;;6.70;;
76094;SDS011;64821;13.710;100.604;2023-06-22T02:25:31;15.68;;;7.10;;
76094;SDS011;64821;13.710;100.604;2023-06-22T02:26:35;18.35;;;7.80;;
76094;SDS011;64821;13.710;100.604;2023-06-22T02:27:40;14.93;;;7.05;;
76094;SDS011;64821;13.710;100.604;2023-06-22T02:28:44;15.50;;;7.30;;
76094;SDS011;64821;13.710;100.604;2023-06-22T02:29:48;15.48;;;6.50;;
76094;SDS011;64821;13.710;100.604;2023-06-22T02:30:53;17.13;;;6.90;;
76094;SDS011;64821;13.710;100.604;2023-06-22T02:31:57;18.52;;;6.25;;
76094;SDS011;64821;13.710;100.604;2023-06-22T02:33:01;14.73;;;6.20;;
76094;SDS011;64821;13.710;100.604;2023-06-22T02:34:05;15.80;;;6.90;;
76094;SDS011;64821;13.710;100.604;2023-06-22T02:35:08;14.63;;;6.45;;
76094;SDS011;64821;13.710;100.604;2023-06-22T02:36:12;14.05;;;6.40;;
76094;SDS011;64821;13.710;100.604;2023-06-22T02:37:16;15.23;;;5.97;;
76094;SDS011;64821;13.710;100.604;2023-06-22T02:38:20;13.05;;;5.80;;
76094;SDS011;64821;13.710;100.604;2023-06-22T02:39:24;11.67;;;5.97;;
76094;SDS011;64821;13.710;100.604;2023-06-22T02:40:28;15.95;;;6.28;;
76094;SDS011;64821;13.710;100.604;2023-06-22T02:41:33;14.93;;;5.95;;
76094;SDS011;64821;13.710;100.604;2023-06-22T02:42:36;14.55;;;5.82;;
76094;SDS011;64821;13.710;100.604;2023-06-22T02:43:40;16.50;;;6.35;;
76094;SDS011;64821;13.710;100.604;2023-06-22T02:44:44;14.20;;;5.50;;
76094;SDS011;64821;13.710;100.604;2023-06-22T02:45:48;13.43;;;5.35;;
76094;SDS011;64821;13.710;100.604;2023-06-22T02:46:53;14.73;;;5.57;;
76094;SDS011;64821;13.710;100.604;2023-06-22T02:47:58;13.45;;;6.13;;
76094;SDS011;64821;13.710;100.604;2023-06-22T02:49:02;15.15;;;5.90;;
76094;SDS011;64821;13.710;100.604;2023-06-22T02:50:06;12.03;;;5.13;;
76094;SDS011;64821;13.710;100.604;2023-06-22T02:51:10;15.25;;;5.80;;
76094;SDS011;64821;13.710;100.604;2023-06-22T02:52:14;12.63;;;5.70;;
76094;SDS011;64821;13.710;100.604;2023-06-22T02:53:17;15.57;;;5.82;;
76094;SDS011;64821;13.710;100.604;2023-06-22T02:54:21;12.68;;;5.60;;
76094;SDS011;64821;13.710;100.604;2023-06-22T02:55:25;15.27;;;5.80;;
76094;SDS011;64821;13.710;100.604;2023-06-22T02:56:29;14.30;;;5.68;;
76094;SDS011;64821;13.710;100.604;2023-06-22T02:57:32;13.68;;;5.82;;
76094;SDS011;64821;13.710;100.604;2023-06-22T02:58:36;13.02;;;5.95;;
76094;SDS011;64821;13.710;100.604;2023-06-22T02:59:40;15.07;;;6.15;;
76094;SDS011;64821;13.710;100.604;2023-06-22T03:00:44;14.80;;;6.03;;
76094;SDS011;64821;13.710;100.604;2023-06-22T03:01:48;15.05;;;5.95;;
76094;SDS011;64821;13.710;100.604;2023-06-22T03:02:54;15.35;;;5.95;;
76094;SDS011;64821;13.710;100.604;2023-06-22T03:03:58;16.20;;;6.05;;
76094;SDS011;64821;13.710;100.604;2023-06-22T03:05:02;15.40;;;6.35;;
76094;SDS011;64821;13.710;100.604;2023-06-22T03:06:06;14.23;;;5.97;;
76094;SDS011;64821;13.710;100.604;2023-06-22T03:07:09;13.68;;;6.63;;
76094;SDS011;64821;13.710;100.604;2023-06-22T03:08:13;15.52;;;6.20;;
76094;SDS011;64821;13.710;100.604;2023-06-22T03:09:17;12.93;;;6.10;;
76094;SDS011;64821;13.710;100.604;2023-06-22T03:10:21;14.57;;;6.07;;
76094;SDS011;64821;13.710;100.604;2023-06-22T03:11:25;14.73;;;5.60;;
76094;SDS011;64821;13.710;100.604;2023-06-22T03:12:28;18.10;;;6.82;;
76094;SDS011;64821;13.710;100.604;2023-06-22T03:13:32;13.25;;;5.95;;
76094;SDS011;64821;13.710;100.604;2023-06-22T03:14:36;13.82;;;5.97;;
76094;SDS011;64821;13.710;100.604;2023-06-22T03:15:40;14.85;;;6.25;;
76094;SDS011;64821;13.710;100.604;2023-06-22T03:16:44;13.37;;;6.47;;
76094;SDS011;64821;13.710;100.604;2023-06-22T03:17:48;14.05;;;6.28;;
76094;SDS011;64821;13.710;100.604;2023-06-22T03:18:53;15.98;;;6.05;;
76094;SDS011;64821;13.710;100.604;2023-06-22T03:19:57;15.52;;;6.57;;
76094;SDS011;64821;13.710;100.604;2023-06-22T03:21:01;13.40;;;5.82;;
76094;SDS011;64821;13.710;100.604;2023-06-22T03:22:04;15.33;;;5.83;;
76094;SDS011;64821;13.710;100.604;2023-06-22T03:23:08;15.27;;;6.35;;
76094;SDS011;64821;13.710;100.604;2023-06-22T03:24:12;16.85;;;6.95;;
76094;SDS011;64821;13.710;100.604;2023-06-22T03:25:16;14.15;;;6.30;;
76094;SDS011;64821;13.710;100.604;2023-06-22T03:26:19;13.77;;;5.90;;
76094;SDS011;64821;13.710;100.604;2023-06-22T03:27:23;14.13;;;6.07;;
76094;SDS011;64821;13.710;100.604;2023-06-22T03:28:27;14.07;;;6.60;;
76094;SDS011;64821;13.710;100.604;2023-06-22T03:29:31;16.83;;;6.18;;
76094;SDS011;64821;13.710;100.604;2023-06-22T03:30:35;14.38;;;6.03;;
76094;SDS011;64821;13.710;100.604;2023-06-22T03:31:38;13.48;;;5.90;;
76094;SDS011;64821;13.710;100.604;2023-06-22T03:32:42;13.93;;;5.87;;
76094;SDS011;64821;13.710;100.604;2023-06-22T03:33:46;13.40;;;6.10;;
76094;SDS011;64821;13.710;100.604;2023-06-22T03:34:52;16.58;;;5.65;;
76094;SDS011;64821;13.710;100.604;2023-06-22T03:35:55;15.13;;;6.35;;
76094;SDS011;64821;13.710;100.604;2023-06-22T03:37:01;17.77;;;7.03;;
76094;SDS011;64821;13.710;100.604;2023-06-22T03:38:05;14.03;;;5.90;;
76094;SDS011;64821;13.710;100.604;2023-06-22T03:39:09;16.65;;;6.10;;
76094;SDS011;64821;13.710;100.604;2023-06-22T03:40:13;12.10;;;5.85;;
76094;SDS011;64821;13.710;100.604;2023-06-22T03:41:16;13.80;;;6.50;;
76094;SDS011;64821;13.710;100.604;2023-06-22T03:42:20;15.65;;;6.20;;
76094;SDS011;64821;13.710;100.604;2023-06-22T03:43:24;14.73;;;6.83;;
76094;SDS011;64821;13.710;100.604;2023-06-22T03:44:28;15.43;;;7.45;;
76094;SDS011;64821;13.710;100.604;2023-06-22T03:45:32;14.60;;;7.20;;
76094;SDS011;64821;13.710;100.604;2023-06-22T03:46:35;14.40;;;6.95;;
76094;SDS011;64821;13.710;100.604;2023-06-22T03:47:39;16.25;;;6.82;;
76094;SDS011;64821;13.710;100.604;2023-06-22T03:48:44;15.67;;;6.90;;
76094;SDS011;64821;13.710;100.604;2023-06-22T03:49:48;15.02;;;6.43;;
76094;SDS011;64821;13.710;100.604;2023-06-22T03:50:53;15.38;;;7.35;;
76094;SDS011;64821;13.710;100.604;2023-06-22T03:51:57;14.43;;;6.40;;
76094;SDS011;64821;13.710;100.604;2023-06-22T03:53:01;15.23;;;6.47;;
76094;SDS011;64821;13.710;100.604;2023-06-22T03:54:05;14.37;;;7.40;;
76094;SDS011;64821;13.710;100.604;2023-06-22T03:55:08;14.73;;;6.88;;
76094;SDS011;64821;13.710;100.604;2023-06-22T03:56:12;14.45;;;6.70;;
76094;SDS011;64821;13.710;100.604;2023-06-22T03:57:16;14.98;;;6.65;;
76094;SDS011;64821;13.710;100.604;2023-06-22T03:58:20;13.30;;;6.80;;
76094;SDS011;64821;13.710;100.604;2023-06-22T03:59:24;16.43;;;7.10;;
76094;SDS011;64821;13.710;100.604;2023-06-22T04:00:28;13.82;;;7.15;;
76094;SDS011;64821;13.710;100.604;2023-06-22T04:01:32;14.60;;;6.47;;
76094;SDS011;64821;13.710;100.604;2023-06-22T04:02:36;16.58;;;7.07;;
76094;SDS011;64821;13.710;100.604;2023-06-22T04:03:40;13.52;;;6.60;;
76094;SDS011;64821;13.710;100.604;2023-06-22T04:04:44;12.73;;;6.50;;
76094;SDS011;64821;13.710;100.604;2023-06-22T04:05:48;14.88;;;6.97;;
76094;SDS011;64821;13.710;100.604;2023-06-22T04:06:54;13.35;;;6.55;;
76094;SDS011;64821;13.710;100.604;2023-06-22T04:07:58;15.32;;;6.68;;
76094;SDS011;64821;13.710;100.604;2023-06-22T04:09:01;16.38;;;6.90;;
76094;SDS011;64821;13.710;100.604;2023-06-22T04:10:05;15.30;;;6.83;;
76094;SDS011;64821;13.710;100.604;2023-06-22T04:11:13;21.15;;;8.82;;
76094;SDS011;64821;13.710;100.604;2023-06-22T04:12:17;19.55;;;11.05;;
76094;SDS011;64821;13.710;100.604;2023-06-22T04:13:21;18.10;;;10.60;;
76094;SDS011;64821;13.710;100.604;2023-06-22T04:14:24;20.33;;;16.55;;
76094;SDS011;64821;13.710;100.604;2023-06-22T04:15:28;16.07;;;8.93;;
76094;SDS011;64821;13.710;100.604;2023-06-22T04:16:32;17.83;;;12.88;;
76094;SDS011;64821;13.710;100.604;2023-06-22T04:17:36;16.27;;;10.15;;
76094;SDS011;64821;13.710;100.604;2023-06-22T04:18:40;15.52;;;7.60;;
76094;SDS011;64821;13.710;100.604;2023-06-22T04:19:43;14.85;;;7.13;;
76094;SDS011;64821;13.710;100.604;2023-06-22T04:20:47;15.20;;;9.00;;
76094;SDS011;64821;13.710;100.604;2023-06-22T04:21:51;14.90;;;8.23;;
76094;SDS011;64821;13.710;100.604;2023-06-22T04:22:56;19.08;;;8.60;;
76094;SDS011;64821;13.710;100.604;2023-06-22T04:24:00;20.45;;;12.43;;
76094;SDS011;64821;13.710;100.604;2023-06-22T04:25:05;17.13;;;8.40;;
76094;SDS011;64821;13.710;100.604;2023-06-22T04:26:09;15.83;;;7.67;;
76094;SDS011;64821;13.710;100.604;2023-06-22T04:27:13;16.55;;;7.05;;
76094;SDS011;64821;13.710;100.604;2023-06-22T04:28:17;12.70;;;7.07;;
76094;SDS011;64821;13.710;100.604;2023-06-22T04:29:21;13.00;;;7.70;;
76094;SDS011;64821;13.710;100.604;2023-06-22T04:30:25;15.90;;;8.32;;
76094;SDS011;64821;13.710;100.604;2023-06-22T04:31:29;14.93;;;8.00;;
76094;SDS011;64821;13.710;100.604;2023-06-22T04:32:33;13.95;;;7.90;;
76094;SDS011;64821;13.710;100.604;2023-06-22T04:33:37;12.70;;;6.88;;
76094;SDS011;64821;13.710;100.604;2023-06-22T04:34:41;16.75;;;8.00;;
76094;SDS011;64821;13.710;100.604;2023-06-22T04:35:45;17.35;;;8.43;;
76094;SDS011;64821;13.710;100.604;2023-06-22T04:36:49;12.80;;;7.43;;
76094;SDS011;64821;13.710;100.604;2023-06-22T04:37:53;14.95;;;7.57;;
76094;SDS011;64821;13.710;100.604;2023-06-22T04:39:00;15.23;;;7.78;;
76094;SDS011;64821;13.710;100.604;2023-06-22T04:40:04;16.02;;;8.02;;
76094;SDS011;64821;13.710;100.604;2023-06-22T04:41:09;19.52;;;8.70;;
76094;SDS011;64821;13.710;100.604;2023-06-22T04:42:13;19.07;;;9.00;;
76094;SDS011;64821;13.710;100.604;2023-06-22T04:43:16;16.45;;;8.13;;
76094;SDS011;64821;13.710;100.604;2023-06-22T04:44:20;18.40;;;7.90;;
76094;SDS011;64821;13.710;100.604;2023-06-22T04:45:24;16.90;;;7.72;;
76094;SDS011;64821;13.710;100.604;2023-06-22T04:46:28;15.07;;;8.10;;
76094;SDS011;64821;13.710;100.604;2023-06-22T04:47:32;15.90;;;7.77;;
76094;SDS011;64821;13.710;100.604;2023-06-22T04:48:35;18.63;;;7.85;;
76094;SDS011;64821;13.710;100.604;2023-06-22T04:49:39;13.95;;;7.75;;
76094;SDS011;64821;13.710;100.604;2023-06-22T04:50:43;18.00;;;8.18;;
76094;SDS011;64821;13.710;100.604;2023-06-22T04:51:47;18.85;;;8.27;;
76094;SDS011;64821;13.710;100.604;2023-06-22T04:52:51;17.40;;;8.67;;
76094;SDS011;64821;13.710;100.604;2023-06-22T04:53:54;16.33;;;8.90;;
76094;SDS011;64821;13.710;100.604;2023-06-22T04:55:00;16.25;;;9.85;;
76094;SDS011;64821;13.710;100.604;2023-06-22T04:56:04;14.63;;;8.48;;
76094;SDS011;64821;13.710;100.604;2023-06-22T04:57:08;15.82;;;8.75;;
76094;SDS011;64821;13.710;100.604;2023-06-22T04:58:12;15.20;;;8.47;;
76094;SDS011;64821;13.710;100.604;2023-06-22T04:59:16;16.77;;;8.75;;
76094;SDS011;64821;13.710;100.604;2023-06-22T05:00:20;19.70;;;9.35;;
76094;SDS011;64821;13.710;100.604;2023-06-22T05:01:23;17.00;;;8.57;;
76094;SDS011;64821;13.710;100.604;2023-06-22T05:02:27;19.13;;;9.23;;
76094;SDS011;64821;13.710;100.604;2023-06-22T05:03:31;18.27;;;9.30;;
76094;SDS011;64821;13.710;100.604;2023-06-22T05:04:35;16.38;;;8.82;;
76094;SDS011;64821;13.710;100.604;2023-06-22T05:05:39;17.42;;;9.43;;
76094;SDS011;64821;13.710;100.604;2023-06-22T05:06:43;17.48;;;9.20;;
76094;SDS011;64821;13.710;100.604;2023-06-22T05:07:46;18.88;;;9.30;;
76094;SDS011;64821;13.710;100.604;2023-06-22T05:08:53;18.00;;;9.40;;
76094;SDS011;64821;13.710;100.604;2023-06-22T05:09:58;17.30;;;9.30;;
76094;SDS011;64821;13.710;100.604;2023-06-22T05:11:03;17.60;;;9.75;;
76094;SDS011;64821;13.710;100.604;2023-06-22T05:12:07;17.60;;;9.50;;
76094;SDS011;64821;13.710;100.604;2023-06-22T05:13:12;17.95;;;9.68;;
76094;SDS011;64821;13.710;100.604;2023-06-22T05:14:16;16.70;;;9.73;;
76094;SDS011;64821;13.710;100.604;2023-06-22T05:15:21;17.13;;;9.60;;
76094;SDS011;64821;13.710;100.604;2023-06-22T05:16:24;17.73;;;9.90;;
76094;SDS011;64821;13.710;100.604;2023-06-22T05:17:28;15.80;;;9.98;;
76094;SDS011;64821;13.710;100.604;2023-06-22T05:18:32;21.48;;;9.98;;
76094;SDS011;64821;13.710;100.604;2023-06-22T05:19:36;19.20;;;10.17;;
76094;SDS011;64821;13.710;100.604;2023-06-22T05:20:40;17.88;;;10.75;;
76094;SDS011;64821;13.710;100.604;2023-06-22T05:21:44;16.70;;;10.40;;
76094;SDS011;64821;13.710;100.604;2023-06-22T05:22:47;16.63;;;10.55;;
76094;SDS011;64821;13.710;100.604;2023-06-22T05:23:51;19.90;;;10.95;;
76094;SDS011;64821;13.710;100.604;2023-06-22T05:24:56;20.43;;;11.27;;
76094;SDS011;64821;13.710;100.604;2023-06-22T05:26:01;17.88;;;10.43;;
76094;SDS011;64821;13.710;100.604;2023-06-22T05:27:05;17.05;;;10.05;;
76094;SDS011;64821;13.710;100.604;2023-06-22T05:28:09;21.13;;;10.60;;
76094;SDS011;64821;13.710;100.604;2023-06-22T05:29:13;20.08;;;10.63;;
76094;SDS011;64821;13.710;100.604;2023-06-22T05:30:17;16.97;;;9.80;;
76094;SDS011;64821;13.710;100.604;2023-06-22T05:31:23;21.75;;;10.75;;
76094;SDS011;64821;13.710;100.604;2023-06-22T05:32:27;17.40;;;10.05;;
76094;SDS011;64821;13.710;100.604;2023-06-22T05:33:31;17.67;;;10.02;;
76094;SDS011;64821;13.710;100.604;2023-06-22T05:34:34;17.50;;;9.52;;
76094;SDS011;64821;13.710;100.604;2023-06-22T05:35:38;18.07;;;9.87;;
76094;SDS011;64821;13.710;100.604;2023-06-22T05:36:42;17.77;;;9.55;;
76094;SDS011;64821;13.710;100.604;2023-06-22T05:37:46;17.98;;;10.45;;
76094;SDS011;64821;13.710;100.604;2023-06-22T05:38:49;17.77;;;9.88;;
76094;SDS011;64821;13.710;100.604;2023-06-22T05:39:53;20.90;;;10.90;;
76094;SDS011;64821;13.710;100.604;2023-06-22T05:40:57;17.13;;;10.13;;
76094;SDS011;64821;13.710;100.604;2023-06-22T05:42:03;15.05;;;9.65;;
76094;SDS011;64821;13.710;100.604;2023-06-22T05:43:11;15.88;;;9.63;;
76094;SDS011;64821;13.710;100.604;2023-06-22T05:44:14;16.13;;;9.57;;
76094;SDS011;64821;13.710;100.604;2023-06-22T05:45:18;15.98;;;10.00;;
76094;SDS011;64821;13.710;100.604;2023-06-22T05:46:22;17.03;;;10.20;;
76094;SDS011;64821;13.710;100.604;2023-06-22T05:47:26;19.25;;;9.75;;
76094;SDS011;64821;13.710;100.604;2023-06-22T05:48:30;18.85;;;10.02;;
76094;SDS011;64821;13.710;100.604;2023-06-22T05:49:34;15.27;;;9.80;;
76094;SDS011;64821;13.710;100.604;2023-06-22T05:50:38;18.55;;;10.32;;
76094;SDS011;64821;13.710;100.604;2023-06-22T05:51:43;16.10;;;9.50;;
76094;SDS011;64821;13.710;100.604;2023-06-22T05:52:47;17.40;;;10.15;;
76094;SDS011;64821;13.710;100.604;2023-06-22T05:53:51;18.10;;;10.15;;
76094;SDS011;64821;13.710;100.604;2023-06-22T05:54:55;20.02;;;10.15;;
76094;SDS011;64821;13.710;100.604;2023-06-22T05:55:58;17.42;;;9.55;;
76094;SDS011;64821;13.710;100.604;2023-06-22T05:57:04;15.57;;;10.30;;
76094;SDS011;64821;13.710;100.604;2023-06-22T05:58:08;15.40;;;10.25;;
76094;SDS011;64821;13.710;100.604;2023-06-22T05:59:12;16.20;;;9.15;;
76094;SDS011;64821;13.710;100.604;2023-06-22T06:00:16;14.23;;;8.98;;
76094;SDS011;64821;13.710;100.604;2023-06-22T06:01:20;18.00;;;9.60;;
76094;SDS011;64821;13.710;100.604;2023-06-22T06:02:24;15.30;;;9.43;;
76094;SDS011;64821;13.710;100.604;2023-06-22T06:03:28;16.33;;;10.02;;
76094;SDS011;64821;13.710;100.604;2023-06-22T06:04:32;14.90;;;9.65;;
76094;SDS011;64821;13.710;100.604;2023-06-22T06:05:36;15.98;;;8.90;;
76094;SDS011;64821;13.710;100.604;2023-06-22T06:06:42;16.90;;;9.93;;
76094;SDS011;64821;13.710;100.604;2023-06-22T06:07:47;15.60;;;9.70;;
76094;SDS011;64821;13.710;100.604;2023-06-22T06:08:50;16.45;;;10.10;;
76094;SDS011;64821;13.710;100.604;2023-06-22T06:09:54;14.15;;;9.07;;
76094;SDS011;64821;13.710;100.604;2023-06-22T06:10:58;17.52;;;9.55;;
76094;SDS011;64821;13.710;100.604;2023-06-22T06:12:04;14.65;;;9.90;;